createdAt,value
2022-10-11T04:15:51.441Z,33.42
2022-10-11T04:18:30.756Z,33.40
2022-10-11T04:21:10.922Z,33.63
2022-10-11T04:23:49.229Z,35.05
2022-10-11T04:26:27.164Z,32.92
2022-10-11T04:29:05.536Z,31.98
2022-10-11T04:31:43.014Z,33.75
2022-10-11T04:34:22.217Z,34.25
2022-10-11T04:37:00.949Z,34.53
2022-10-11T04:39:39.593Z,34.58
2022-10-11T04:42:17.804Z,34.17
2022-10-11T04:44:55.531Z,35.72
2022-10-11T04:47:33.832Z,32.47
2022-10-11T04:50:12.443Z,35.78
2022-10-11T04:52:50.511Z,34.72
2022-10-11T04:55:29.228Z,36.15
2022-10-11T04:58:06.698Z,35.67
2022-10-11T05:00:45.138Z,36.92
2022-10-11T05:03:25.498Z,35.33
2022-10-11T05:06:05.856Z,36.85
2022-10-11T05:08:46.149Z,37.05
2022-10-11T05:11:24.403Z,36.83
2022-10-11T05:14:02.403Z,38.70
2022-10-11T05:16:40.411Z,36.22
2022-10-11T05:19:19.723Z,36.47
2022-10-11T05:21:57.362Z,36.25
2022-10-11T05:24:35.509Z,36.50
2022-10-11T05:27:13.712Z,36.65
2022-10-11T05:29:52.228Z,36.10
2022-10-11T05:32:28.345Z,35.03
2022-10-11T05:35:06.948Z,36.63
2022-10-11T05:37:44.902Z,37.58
2022-10-11T05:40:21.292Z,34.17
2022-10-11T05:43:00.068Z,35.95
2022-10-11T05:45:40.032Z,33.22
2022-10-11T05:48:17.647Z,36.80
2022-10-11T05:51:14.331Z,35.20
2022-10-11T05:53:53.164Z,35.03
2022-10-11T05:56:31.555Z,33.53
2022-10-11T05:59:09.518Z,35.17
2022-10-11T06:01:48.739Z,33.95
2022-10-11T06:04:27.270Z,32.95
2022-10-11T06:07:06.804Z,33.97
2022-10-11T06:09:46.195Z,34.70
2022-10-11T06:12:23.428Z,34.63
2022-10-11T06:15:28.027Z,34.53
2022-10-11T06:18:25.604Z,34.83
2022-10-11T06:21:30.035Z,36.38
2022-10-11T06:24:25.964Z,34.63
2022-10-11T06:27:20.597Z,34.33
2022-10-11T06:30:15.967Z,35.47
2022-10-11T06:33:11.918Z,34.03
2022-10-11T06:36:15.046Z,32.97
2022-10-11T06:39:11.100Z,31.98
2022-10-11T06:42:06.772Z,33.60
2022-10-11T06:44:59.088Z,32.05
2022-10-11T06:47:55.520Z,31.23
2022-10-11T06:51:00.053Z,33.85
2022-10-11T06:53:55.893Z,31.90
2022-10-11T06:56:51.121Z,33.58
2022-10-11T06:59:58.300Z,34.42
2022-10-11T07:02:50.373Z,33.00
2022-10-11T07:05:46.123Z,33.63
2022-10-11T07:08:42.054Z,33.95
2022-10-11T07:11:38.820Z,34.22
2022-10-11T07:14:59.847Z,33.60
2022-10-11T07:17:36.828Z,33.17
2022-10-11T07:20:28.913Z,33.28
2022-10-11T07:23:06.887Z,33.05
2022-10-11T07:26:15.283Z,33.85
2022-10-11T07:29:12.638Z,33.55
2022-10-11T07:32:04.525Z,32.88
2022-10-11T07:34:56.517Z,34.42
2022-10-11T07:37:48.820Z,36.10
2022-10-11T07:40:43.184Z,35.40
2022-10-11T07:43:36.817Z,35.38
2022-10-11T07:46:34.141Z,35.60
2022-10-11T07:49:26.213Z,36.85
2022-10-11T07:52:22.490Z,36.53
2022-10-11T07:55:15.287Z,36.60
2022-10-11T07:58:10.678Z,36.55
2022-10-11T08:01:02.526Z,34.95
2022-10-11T08:04:06.521Z,36.78
2022-10-11T08:06:58.852Z,37.03
2022-10-11T08:09:52.841Z,35.17
2022-10-11T08:12:47.602Z,33.65
2022-10-11T08:15:45.512Z,34.60
2022-10-11T08:18:43.466Z,32.85
2022-10-11T08:21:38.971Z,36.88
2022-10-11T08:24:38.335Z,35.17
2022-10-11T08:27:32.387Z,38.33
2022-10-11T08:30:29.641Z,37.30
2022-10-11T08:33:25.751Z,39.65
2022-10-11T08:36:29.208Z,38.70
2022-10-11T08:39:24.848Z,38.60
2022-10-11T08:42:34.897Z,38.67
2022-10-11T08:45:19.475Z,39.00
2022-10-11T08:47:47.760Z,38.08
2022-10-11T08:50:20.642Z,40.42
2022-10-11T08:52:53.353Z,41.15
2022-10-11T08:55:34.755Z,43.00
2022-10-11T08:58:02.557Z,42.13
2022-10-11T09:00:33.010Z,44.03
2022-10-11T09:03:55.128Z,41.85
2022-10-11T09:06:40.315Z,40.53
2022-10-11T09:09:20.265Z,41.03
2022-10-11T09:11:53.546Z,40.63
2022-10-11T09:15:24.414Z,40.47
2022-10-11T09:18:22.470Z,41.55
2022-10-11T09:20:59.621Z,41.60
2022-10-11T09:24:02.369Z,44.42
2022-10-11T09:26:38.531Z,42.72
2022-10-11T09:29:08.730Z,43.58
2022-10-11T09:31:37.304Z,48.17
2022-10-11T09:34:13.531Z,48.65
2022-10-11T09:36:54.325Z,49.25
2022-10-11T09:39:35.521Z,46.77
2022-10-11T09:42:11.568Z,46.85
2022-10-11T09:44:50.143Z,44.97
2022-10-11T09:47:25.099Z,45.65
2022-10-11T09:49:57.927Z,45.72
2022-10-11T09:52:26.403Z,44.95
2022-10-11T09:55:00.615Z,47.45
2022-10-11T09:57:33.444Z,48.30
2022-10-11T10:00:03.804Z,47.95
2022-10-11T10:02:56.283Z,43.60
2022-10-11T10:05:26.201Z,42.40
2022-10-11T10:08:09.120Z,42.63
2022-10-11T10:10:42.817Z,41.95
2022-10-11T10:13:21.822Z,41.80
2022-10-11T10:15:56.401Z,43.28
2022-10-11T10:18:39.390Z,35.10
2022-10-11T10:21:13.349Z,35.90
2022-10-11T10:23:43.496Z,36.03
2022-10-11T10:26:17.074Z,36.75
2022-10-11T10:29:10.627Z,35.30
2022-10-11T10:32:01.994Z,35.95
2022-10-11T10:34:35.569Z,38.00
2022-10-11T10:37:25.532Z,35.15
2022-10-11T10:40:19.036Z,31.40
2022-10-11T10:42:46.928Z,31.27
2022-10-11T10:45:21.210Z,30.77
2022-10-11T10:48:16.509Z,30.00
2022-10-11T10:50:56.095Z,29.73
2022-10-11T10:53:34.699Z,27.80
2022-10-11T10:56:12.421Z,28.38
2022-10-11T10:59:00.019Z,29.00
2022-10-11T11:01:30.542Z,29.27
2022-10-11T11:04:21.834Z,25.58
2022-10-11T11:06:58.207Z,28.38
2022-10-11T11:09:28.589Z,25.08
2022-10-11T11:12:08.423Z,24.23
2022-10-11T11:14:44.461Z,27.48
2022-10-11T11:17:45.936Z,22.10
2022-10-11T11:20:28.556Z,24.13
2022-10-11T11:22:58.761Z,21.17
2022-10-11T11:25:53.356Z,18.77
2022-10-11T11:28:40.460Z,21.70
2022-10-11T11:31:36.700Z,21.05
2022-10-11T11:34:29.303Z,22.02
2022-10-11T11:37:01.796Z,19.70
2022-10-11T11:39:49.009Z,17.95
2022-10-11T11:42:28.937Z,16.80
2022-10-11T11:45:02.431Z,20.00
2022-10-11T11:47:55.449Z,20.40
2022-10-11T11:50:27.937Z,18.20
2022-10-11T11:53:12.244Z,18.67
2022-10-11T11:55:51.824Z,17.48
2022-10-11T11:58:34.196Z,18.35
2022-10-11T12:01:13.382Z,18.15
2022-10-11T12:03:46.395Z,15.20
2022-10-11T12:06:14.013Z,16.20
2022-10-11T12:08:46.289Z,14.57
2022-10-11T12:11:26.002Z,13.57
2022-10-11T12:13:54.791Z,12.30
2022-10-11T12:16:22.977Z,12.70
2022-10-11T12:18:56.049Z,11.90
2022-10-11T12:21:37.785Z,11.88
2022-10-11T12:24:11.049Z,12.50
2022-10-11T12:26:46.858Z,12.45
2022-10-11T12:29:17.416Z,11.93
2022-10-11T12:32:05.626Z,12.00
2022-10-11T12:37:17.698Z,12.35
2022-10-11T12:39:56.269Z,12.10
2022-10-11T12:42:35.458Z,12.52
2022-10-11T12:45:12.729Z,12.65
2022-10-11T12:47:51.997Z,11.70
2022-10-11T12:50:38.013Z,12.68
2022-10-11T12:54:07.989Z,11.35
2022-10-11T12:56:44.224Z,12.40
2022-10-11T12:59:23.824Z,11.60
2022-10-11T13:01:56.579Z,11.32
2022-10-11T13:04:33.273Z,12.90
2022-10-11T13:07:11.676Z,12.15
2022-10-11T13:09:41.589Z,10.90
2022-10-11T13:14:45.545Z,12.52
2022-10-11T13:17:19.470Z,10.57
2022-10-11T13:19:58.688Z,10.15
2022-10-11T13:22:27.029Z,11.73
2022-10-11T13:25:00.137Z,12.25
2022-10-11T13:27:27.775Z,12.00
2022-10-11T13:30:00.042Z,12.40
2022-10-11T13:32:30.254Z,10.82
2022-10-11T13:35:01.928Z,10.13
2022-10-11T13:37:31.463Z,10.75
2022-10-11T13:39:59.427Z,11.55
2022-10-11T13:42:32.512Z,11.00
2022-10-11T13:45:00.717Z,10.48
2022-10-11T13:47:30.699Z,10.23
2022-10-11T13:50:31.641Z,8.98
2022-10-11T13:53:09.528Z,9.02
2022-10-11T13:55:50.155Z,8.48
2022-10-11T13:58:27.112Z,8.55
2022-10-11T14:01:24.738Z,8.38
2022-10-11T14:04:04.110Z,7.85
2022-10-11T14:06:49.797Z,9.57
2022-10-11T14:09:39.559Z,8.18
2022-10-11T14:12:30.871Z,8.23
2022-10-11T14:15:04.100Z,8.10
2022-10-11T14:17:42.265Z,8.70
2022-10-11T14:20:17.322Z,9.23
2022-10-11T14:22:45.226Z,8.65
2022-10-11T14:25:12.729Z,8.00
2022-10-11T14:27:42.514Z,7.90
2022-10-11T14:30:25.755Z,7.57
2022-10-11T14:32:58.636Z,8.13
2022-10-11T14:35:31.790Z,8.13
2022-10-11T14:40:30.234Z,8.55
2022-10-11T14:42:57.805Z,7.72
2022-10-11T14:45:25.778Z,9.02
2022-10-11T14:47:53.564Z,8.80
2022-10-11T14:50:34.094Z,7.97
2022-10-11T14:53:01.469Z,9.38
2022-10-11T14:55:30.329Z,8.73
2022-10-11T14:57:58.161Z,8.60
2022-10-11T15:00:28.501Z,8.48
2022-10-11T15:02:56.240Z,7.35
2022-10-11T15:05:28.687Z,6.97
2022-10-11T15:07:59.040Z,8.07
2022-10-11T15:10:38.558Z,8.63
2022-10-11T15:13:07.292Z,9.50
2022-10-11T15:15:37.000Z,8.00
2022-10-11T15:18:06.399Z,9.50
2022-10-11T15:20:38.191Z,9.38
2022-10-11T15:23:07.805Z,7.97
2022-10-11T15:25:37.734Z,8.40
2022-10-11T15:28:06.617Z,8.40
2022-10-11T15:30:41.044Z,9.27
2022-10-11T15:33:09.377Z,8.88
2022-10-11T15:35:36.824Z,8.38
2022-10-11T15:38:04.489Z,8.05
2022-10-11T15:40:37.068Z,7.93
2022-10-11T15:43:04.699Z,7.45
2022-10-11T15:45:31.972Z,8.88
2022-10-11T15:47:59.321Z,8.95
2022-10-11T15:50:37.366Z,8.65
2022-10-11T15:53:07.484Z,8.57
2022-10-11T15:55:38.492Z,9.23
2022-10-11T15:58:07.185Z,9.00
2022-10-11T16:00:34.422Z,8.40
2022-10-11T16:03:01.628Z,8.68
2022-10-11T16:05:30.360Z,8.88
2022-10-11T16:07:57.587Z,9.45
2022-10-11T16:10:24.829Z,8.85
2022-10-11T16:12:52.118Z,8.95
2022-10-11T16:15:19.305Z,9.75
2022-10-11T16:17:47.049Z,9.90
2022-10-11T16:20:15.336Z,10.48
2022-10-11T16:22:43.082Z,11.20
2022-10-11T16:25:10.607Z,11.15
2022-10-11T16:27:37.929Z,11.40
2022-10-11T16:30:06.292Z,12.07
2022-10-11T16:32:34.167Z,11.73
2022-10-11T16:35:01.498Z,11.63
2022-10-11T16:37:31.864Z,11.20
2022-10-11T16:39:59.468Z,12.45
2022-10-11T16:42:27.387Z,12.18
2022-10-11T16:44:54.620Z,12.93
2022-10-11T16:47:21.872Z,11.80
2022-10-11T16:49:49.499Z,13.45
2022-10-11T16:52:17.373Z,13.10
2022-10-11T16:54:46.666Z,13.57
2022-10-11T16:57:16.836Z,14.63
2022-10-11T16:59:44.751Z,13.55
2022-10-11T17:02:21.708Z,13.82
2022-10-11T17:04:51.373Z,14.73
2022-10-11T17:07:19.506Z,15.57
2022-10-11T17:09:48.600Z,16.08
2022-10-11T17:12:18.590Z,16.05
2022-10-11T17:14:46.882Z,20.73
2022-10-11T17:17:14.618Z,36.80
2022-10-11T17:19:45.325Z,37.47
2022-10-11T17:22:18.397Z,41.53
2022-10-11T17:24:45.923Z,32.80
2022-10-11T17:27:13.551Z,32.17
2022-10-11T17:29:40.935Z,29.38
2022-10-11T17:32:08.330Z,20.35
2022-10-11T17:34:36.044Z,21.13
2022-10-11T17:37:04.173Z,18.15
2022-10-11T17:39:32.044Z,20.75
2022-10-11T17:42:04.905Z,18.63
2022-10-11T17:44:32.195Z,17.45
2022-10-11T17:47:00.300Z,17.67
2022-10-11T17:49:27.596Z,17.90
2022-10-11T17:51:56.558Z,18.67
2022-10-11T17:54:24.435Z,18.42
2022-10-11T17:56:51.755Z,16.10
2022-10-11T17:59:27.284Z,16.25
2022-10-11T18:01:54.884Z,17.77
2022-10-11T18:04:26.671Z,17.55
2022-10-11T18:06:54.204Z,17.48
2022-10-11T18:09:22.561Z,17.67
2022-10-11T18:11:50.775Z,17.73
2022-10-11T18:14:18.416Z,17.95
2022-10-11T18:16:45.905Z,17.85
2022-10-11T18:19:14.415Z,18.17
2022-10-11T18:21:42.076Z,19.23
2022-10-11T18:24:15.406Z,19.73
2022-10-11T18:26:47.088Z,22.35
2022-10-11T18:29:15.981Z,22.52
2022-10-11T18:31:43.301Z,20.40
2022-10-11T18:34:12.931Z,19.02
2022-10-11T18:36:40.295Z,20.05
2022-10-11T18:39:09.598Z,20.65
2022-10-11T18:41:39.110Z,20.80
2022-10-11T18:44:08.545Z,19.90
2022-10-11T18:46:36.343Z,20.95
2022-10-11T18:49:04.277Z,20.42
2022-10-11T18:51:34.128Z,20.80
2022-10-11T18:54:01.892Z,17.58
2022-10-11T18:56:31.211Z,18.48
2022-10-11T18:58:59.272Z,17.55
2022-10-11T19:01:32.548Z,17.48
2022-10-11T19:04:01.877Z,17.92
2022-10-11T19:06:32.528Z,17.38
2022-10-11T19:09:09.227Z,17.03
2022-10-11T19:11:37.787Z,18.02
2022-10-11T19:14:08.287Z,19.70
2022-10-11T19:16:38.604Z,21.25
2022-10-11T19:19:06.883Z,19.35
2022-10-11T19:21:34.150Z,20.08
2022-10-11T19:24:01.841Z,20.05
2022-10-11T19:26:33.530Z,20.45
2022-10-11T19:29:04.875Z,25.80
2022-10-11T19:31:34.053Z,23.48
2022-10-11T19:34:02.375Z,23.35
2022-10-11T19:36:34.019Z,21.20
2022-10-11T19:39:05.595Z,19.98
2022-10-11T19:41:33.312Z,20.15
2022-10-11T19:44:03.646Z,19.35
2022-10-11T19:49:21.403Z,17.52
2022-10-11T19:51:49.317Z,17.58
2022-10-11T19:54:17.503Z,17.52
2022-10-11T19:56:44.983Z,18.75
2022-10-11T19:59:14.585Z,19.20
2022-10-11T20:01:43.305Z,19.63
2022-10-11T20:04:27.792Z,19.90
2022-10-11T20:07:00.406Z,20.27
2022-10-11T20:09:30.014Z,20.45
2022-10-11T20:11:58.294Z,18.58
2022-10-11T20:14:27.041Z,20.05
2022-10-11T20:16:54.388Z,19.77
2022-10-11T20:19:27.745Z,19.23
2022-10-11T20:21:58.244Z,19.40
2022-10-11T20:24:27.406Z,20.08
2022-10-11T20:26:55.219Z,21.88
2022-10-11T20:29:25.213Z,22.10
2022-10-11T20:31:52.601Z,21.58
2022-10-11T20:34:19.913Z,21.73
2022-10-11T20:36:49.224Z,22.20
2022-10-11T20:39:18.187Z,24.35
2022-10-11T20:41:45.545Z,22.25
2022-10-11T20:44:15.763Z,22.73
2022-10-11T20:46:43.490Z,23.75
2022-10-11T20:49:11.847Z,24.13
2022-10-11T20:51:41.659Z,22.80
2022-10-11T20:54:10.688Z,24.17
2022-10-11T20:56:38.606Z,23.67
2022-10-11T20:59:07.492Z,22.77
2022-10-11T21:01:37.700Z,24.27
2022-10-11T21:04:06.169Z,25.75
2022-10-11T21:06:34.319Z,22.42
2022-10-11T21:09:01.750Z,23.23
2022-10-11T21:11:33.552Z,22.88
2022-10-11T21:14:03.843Z,23.40
2022-10-11T21:16:32.756Z,22.10
2022-10-11T21:19:01.152Z,21.85
2022-10-11T21:21:29.688Z,23.38
2022-10-11T21:24:00.371Z,23.00
2022-10-11T21:26:28.593Z,23.55
2022-10-11T21:28:56.058Z,22.95
2022-10-11T21:31:23.975Z,23.80
2022-10-11T21:33:51.563Z,23.15
2022-10-11T21:36:21.088Z,24.17
2022-10-11T21:38:49.751Z,25.25
2022-10-11T21:41:22.104Z,25.50
2022-10-11T21:43:49.764Z,24.75
2022-10-11T21:46:19.131Z,24.45
2022-10-11T21:48:47.310Z,25.65
2022-10-11T21:51:17.376Z,25.33
2022-10-11T21:53:45.052Z,26.10
2022-10-11T21:56:12.758Z,26.08
2022-10-11T21:58:40.648Z,23.83
2022-10-11T22:01:10.191Z,23.83
2022-10-11T22:03:37.948Z,22.75
2022-10-11T22:06:06.122Z,24.25
2022-10-11T22:08:34.137Z,22.73
2022-10-11T22:11:01.937Z,22.55
2022-10-11T22:13:32.230Z,22.48
2022-10-11T22:16:10.919Z,23.20
2022-10-11T22:18:39.046Z,23.98
2022-10-11T22:21:12.492Z,23.58
2022-10-11T22:23:41.069Z,22.77
